sensor_id;sensor_type;location;lat;lon;timestamp;temperature;humidity
9365;DHT22;4722;49.340;9.800;2023-06-22T00:08:03;17.70;99.90
9365;DHT22;4722;49.340;9.800;2023-06-22T00:17:49;18.00;99.90
9365;DHT22;4722;49.340;9.800;2023-06-22T00:20:15;18.00;99.90
9365;DHT22;4722;49.340;9.800;2023-06-22T00:27:36;17.90;99.90
9365;DHT22;4722;49.340;9.800;2023-06-22T00:54:24;16.70;99.90
9365;DHT22;4722;49.340;9.800;2023-06-22T00:56:54;17.30;99.90
9365;DHT22;4722;49.340;9.800;2023-06-22T01:06:52;17.30;99.90
9365;DHT22;4722;49.340;9.800;2023-06-22T01:09:24;17.40;99.90
9365;DHT22;4722;49.340;9.800;2023-06-22T01:11:57;17.50;99.90
9365;DHT22;4722;49.340;9.800;2023-06-22T01:14:41;17.40;99.90
9365;DHT22;4722;49.340;9.800;2023-06-22T01:17:08;17.40;99.90
9365;DHT22;4722;49.340;9.800;2023-06-22T01:24:51;17.30;99.90
9365;DHT22;4722;49.340;9.800;2023-06-22T01:30:13;17.30;99.90
9365;DHT22;4722;49.340;9.800;2023-06-22T01:35:08;17.60;99.90
9365;DHT22;4722;49.340;9.800;2023-06-22T01:37:35;17.40;99.90
9365;DHT22;4722;49.340;9.800;2023-06-22T01:40:03;17.50;99.90
9365;DHT22;4722;49.340;9.800;2023-06-22T01:42:31;17.50;99.90
9365;DHT22;4722;49.340;9.800;2023-06-22T01:44:58;17.70;99.90
9365;DHT22;4722;49.340;9.800;2023-06-22T01:57:10;17.60;99.90
9365;DHT22;4722;49.340;9.800;2023-06-22T02:00:02;17.90;99.90
9365;DHT22;4722;49.340;9.800;2023-06-22T02:02:33;17.50;99.90
9365;DHT22;4722;49.340;9.800;2023-06-22T02:05:05;17.60;99.90
9365;DHT22;4722;49.340;9.800;2023-06-22T02:07:34;17.60;99.90
9365;DHT22;4722;49.340;9.800;2023-06-22T02:10:02;17.50;99.90
9365;DHT22;4722;49.340;9.800;2023-06-22T02:12:31;17.60;99.90
9365;DHT22;4722;49.340;9.800;2023-06-22T02:14:58;17.70;99.90
9365;DHT22;4722;49.340;9.800;2023-06-22T02:29:36;17.40;99.90
9365;DHT22;4722;49.340;9.800;2023-06-22T02:36:55;17.10;99.90
9365;DHT22;4722;49.340;9.800;2023-06-22T02:51:33;17.40;99.90
9365;DHT22;4722;49.340;9.800;2023-06-22T02:56:25;17.30;99.90
9365;DHT22;4722;49.340;9.800;2023-06-22T02:58:51;17.40;99.90
9365;DHT22;4722;49.340;9.800;2023-06-22T03:25:43;17.00;99.90
9365;DHT22;4722;49.340;9.800;2023-06-22T03:50:05;17.10;99.90
9365;DHT22;4722;49.340;9.800;2023-06-22T03:52:31;17.40;99.90
9365;DHT22;4722;49.340;9.800;2023-06-22T03:59:49;17.60;99.90
9365;DHT22;4722;49.340;9.800;2023-06-22T04:21:44;17.70;99.90
9365;DHT22;4722;49.340;9.800;2023-06-22T04:29:05;17.60;99.90
9365;DHT22;4722;49.340;9.800;2023-06-22T04:31:32;17.80;99.90
9365;DHT22;4722;49.340;9.800;2023-06-22T04:36:39;18.10;99.90
9365;DHT22;4722;49.340;9.800;2023-06-22T04:39:11;18.50;99.90
9365;DHT22;4722;49.340;9.800;2023-06-22T04:41:38;18.20;99.90
9365;DHT22;4722;49.340;9.800;2023-06-22T04:44:09;18.10;99.90
9365;DHT22;4722;49.340;9.800;2023-06-22T04:49:09;18.70;99.90
9365;DHT22;4722;49.340;9.800;2023-06-22T04:51:42;18.50;99.90
9365;DHT22;4722;49.340;9.800;2023-06-22T04:54:08;19.50;99.90
9365;DHT22;4722;49.340;9.800;2023-06-22T05:06:22;20.50;99.90
9365;DHT22;4722;49.340;9.800;2023-06-22T05:08:55;20.30;99.90
9365;DHT22;4722;49.340;9.800;2023-06-22T05:11:27;20.20;99.90
9365;DHT22;4722;49.340;9.800;2023-06-22T05:16:20;21.30;99.90
9365;DHT22;4722;49.340;9.800;2023-06-22T05:18:55;20.60;99.90
9365;DHT22;4722;49.340;9.800;2023-06-22T05:21:26;20.60;99.90
9365;DHT22;4722;49.340;9.800;2023-06-22T05:23:55;21.10;99.90
9365;DHT22;4722;49.340;9.800;2023-06-22T05:26:26;21.40;99.90
9365;DHT22;4722;49.340;9.800;2023-06-22T05:31:18;20.90;99.90
9365;DHT22;4722;49.340;9.800;2023-06-22T05:38:38;21.60;99.90
9365;DHT22;4722;49.340;9.800;2023-06-22T05:41:03;22.10;99.90
9365;DHT22;4722;49.340;9.800;2023-06-22T05:48:21;22.30;99.90
9365;DHT22;4722;49.340;9.800;2023-06-22T05:50:47;22.40;99.90
9365;DHT22;4722;49.340;9.800;2023-06-22T06:05:26;24.30;99.90
9365;DHT22;4722;49.340;9.800;2023-06-22T06:17:36;25.90;99.90
9365;DHT22;4722;49.340;9.800;2023-06-22T06:20:10;26.30;99.90
9365;DHT22;4722;49.340;9.800;2023-06-22T06:22:35;27.20;99.90
9365;DHT22;4722;49.340;9.800;2023-06-22T06:25:01;27.40;99.90
9365;DHT22;4722;49.340;9.800;2023-06-22T06:29:54;29.20;99.90
9365;DHT22;4722;49.340;9.800;2023-06-22T06:34:45;30.80;99.90
9365;DHT22;4722;49.340;9.800;2023-06-22T06:39:37;32.40;99.90
9365;DHT22;4722;49.340;9.800;2023-06-22T06:42:03;32.80;99.90
9365;DHT22;4722;49.340;9.800;2023-06-22T06:44:29;33.90;99.90
9365;DHT22;4722;49.340;9.800;2023-06-22T06:46:54;34.30;99.90
9365;DHT22;4722;49.340;9.800;2023-06-22T06:49:20;34.80;99.20
9365;DHT22;4722;49.340;9.800;2023-06-22T06:51:46;34.70;97.80
9365;DHT22;4722;49.340;9.800;2023-06-22T06:54:11;35.10;95.70
9365;DHT22;4722;49.340;9.800;2023-06-22T07:03:59;36.80;93.70
9365;DHT22;4722;49.340;9.800;2023-06-22T07:08:55;36.70;91.20
9365;DHT22;4722;49.340;9.800;2023-06-22T07:11:20;36.60;89.50
9365;DHT22;4722;49.340;9.800;2023-06-22T07:13:46;36.60;91.80
9365;DHT22;4722;49.340;9.800;2023-06-22T07:18:39;37.20;71.60
9365;DHT22;4722;49.340;9.800;2023-06-22T07:21:05;37.00;91.00
9365;DHT22;4722;49.340;9.800;2023-06-22T07:28:27;36.80;68.50
9365;DHT22;4722;49.340;9.800;2023-06-22T07:30:53;36.40;80.60
9365;DHT22;4722;49.340;9.800;2023-06-22T07:33:18;36.70;88.50
9365;DHT22;4722;49.340;9.800;2023-06-22T07:40:38;36.10;90.30
9365;DHT22;4722;49.340;9.800;2023-06-22T07:43:03;37.00;89.70
9365;DHT22;4722;49.340;9.800;2023-06-22T07:45:29;36.30;90.00
9365;DHT22;4722;49.340;9.800;2023-06-22T07:47:55;35.90;90.10
9365;DHT22;4722;49.340;9.800;2023-06-22T07:50:20;34.90;91.20
9365;DHT22;4722;49.340;9.800;2023-06-22T07:52:46;35.20;90.50
9365;DHT22;4722;49.340;9.800;2023-06-22T07:55:13;36.10;72.40
9365;DHT22;4722;49.340;9.800;2023-06-22T07:57:39;36.50;86.70
9365;DHT22;4722;49.340;9.800;2023-06-22T08:00:05;36.60;89.80
9365;DHT22;4722;49.340;9.800;2023-06-22T08:02:42;36.80;88.00
9365;DHT22;4722;49.340;9.800;2023-06-22T08:05:09;38.00;87.30
9365;DHT22;4722;49.340;9.800;2023-06-22T08:07:35;37.60;61.00
9365;DHT22;4722;49.340;9.800;2023-06-22T08:10:03;36.70;76.60
9365;DHT22;4722;49.340;9.800;2023-06-22T08:14:55;36.20;88.70
9365;DHT22;4722;49.340;9.800;2023-06-22T08:17:22;35.90;90.10
9365;DHT22;4722;49.340;9.800;2023-06-22T08:22:15;36.00;90.50
9365;DHT22;4722;49.340;9.800;2023-06-22T08:24:41;36.40;87.60
9365;DHT22;4722;49.340;9.800;2023-06-22T08:27:10;36.10;66.70
9365;DHT22;4722;49.340;9.800;2023-06-22T08:29:38;36.00;71.80
9365;DHT22;4722;49.340;9.800;2023-06-22T08:32:04;35.70;90.20
9365;DHT22;4722;49.340;9.800;2023-06-22T08:34:30;35.70;88.80
9365;DHT22;4722;49.340;9.800;2023-06-22T08:41:48;35.60;66.10
9365;DHT22;4722;49.340;9.800;2023-06-22T08:44:15;35.90;86.00
9365;DHT22;4722;49.340;9.800;2023-06-22T08:49:07;36.40;88.10
9365;DHT22;4722;49.340;9.800;2023-06-22T08:51:33;37.90;83.80
9365;DHT22;4722;49.340;9.800;2023-06-22T08:53:59;38.60;82.90
9365;DHT22;4722;49.340;9.800;2023-06-22T08:56:24;38.70;78.00
9365;DHT22;4722;49.340;9.800;2023-06-22T08:58:50;39.60;77.70
9365;DHT22;4722;49.340;9.800;2023-06-22T09:01:15;40.30;78.50
9365;DHT22;4722;49.340;9.800;2023-06-22T09:03:42;41.10;75.50
9365;DHT22;4722;49.340;9.800;2023-06-22T09:08:35;41.60;62.30
9365;DHT22;4722;49.340;9.800;2023-06-22T09:11:01;41.80;75.50
9365;DHT22;4722;49.340;9.800;2023-06-22T09:13:29;41.10;75.40
9365;DHT22;4722;49.340;9.800;2023-06-22T09:15:55;39.00;75.80
9365;DHT22;4722;49.340;9.800;2023-06-22T09:20:47;36.90;81.90
9365;DHT22;4722;49.340;9.800;2023-06-22T09:28:05;36.90;84.50
9365;DHT22;4722;49.340;9.800;2023-06-22T09:35:23;36.20;87.20
9365;DHT22;4722;49.340;9.800;2023-06-22T09:37:48;36.00;88.10
9365;DHT22;4722;49.340;9.800;2023-06-22T09:40:14;36.00;89.10
9365;DHT22;4722;49.340;9.800;2023-06-22T09:45:08;35.00;90.40
9365;DHT22;4722;49.340;9.800;2023-06-22T09:47:34;34.60;90.30
9365;DHT22;4722;49.340;9.800;2023-06-22T09:52:25;34.10;91.10
9365;DHT22;4722;49.340;9.800;2023-06-22T09:54:51;33.80;91.80
9365;DHT22;4722;49.340;9.800;2023-06-22T09:57:17;33.80;92.80
9365;DHT22;4722;49.340;9.800;2023-06-22T09:59:42;33.80;91.40
9365;DHT22;4722;49.340;9.800;2023-06-22T10:02:08;32.90;92.20
9365;DHT22;4722;49.340;9.800;2023-06-22T10:04:37;33.70;93.00
9365;DHT22;4722;49.340;9.800;2023-06-22T10:09:29;33.30;93.00
9365;DHT22;4722;49.340;9.800;2023-06-22T10:14:21;32.90;89.00
9365;DHT22;4722;49.340;9.800;2023-06-22T10:16:48;33.40;74.30
9365;DHT22;4722;49.340;9.800;2023-06-22T10:19:14;33.00;93.40
9365;DHT22;4722;49.340;9.800;2023-06-22T10:21:39;32.90;92.90
9365;DHT22;4722;49.340;9.800;2023-06-22T10:24:05;33.50;93.00
9365;DHT22;4722;49.340;9.800;2023-06-22T10:26:35;33.30;73.80
9365;DHT22;4722;49.340;9.800;2023-06-22T10:29:03;33.70;93.70
9365;DHT22;4722;49.340;9.800;2023-06-22T10:31:29;33.40;92.90
9365;DHT22;4722;49.340;9.800;2023-06-22T10:33:55;33.40;73.60
9365;DHT22;4722;49.340;9.800;2023-06-22T10:36:23;33.60;70.50
9365;DHT22;4722;49.340;9.800;2023-06-22T10:43:42;33.90;91.70
9365;DHT22;4722;49.340;9.800;2023-06-22T10:50:59;34.00;92.70
9365;DHT22;4722;49.340;9.800;2023-06-22T10:53:25;33.00;91.40
9365;DHT22;4722;49.340;9.800;2023-06-22T10:55:50;33.10;92.70
9365;DHT22;4722;49.340;9.800;2023-06-22T10:58:20;32.90;71.70
9365;DHT22;4722;49.340;9.800;2023-06-22T11:00:46;33.40;93.20
9365;DHT22;4722;49.340;9.800;2023-06-22T11:08:05;33.30;94.00
9365;DHT22;4722;49.340;9.800;2023-06-22T11:10:31;33.00;94.10
9365;DHT22;4722;49.340;9.800;2023-06-22T11:15:23;33.00;93.70
9365;DHT22;4722;49.340;9.800;2023-06-22T11:17:49;33.30;93.60
9365;DHT22;4722;49.340;9.800;2023-06-22T11:22:41;33.90;92.60
9365;DHT22;4722;49.340;9.800;2023-06-22T11:25:07;33.20;91.80
9365;DHT22;4722;49.340;9.800;2023-06-22T11:34:51;33.40;93.10
9365;DHT22;4722;49.340;9.800;2023-06-22T11:39:43;33.50;92.90
9365;DHT22;4722;49.340;9.800;2023-06-22T11:44:34;33.90;93.00
9365;DHT22;4722;49.340;9.800;2023-06-22T11:47:00;34.00;93.10
9365;DHT22;4722;49.340;9.800;2023-06-22T11:51:53;33.90;93.20
9365;DHT22;4722;49.340;9.800;2023-06-22T11:54:18;33.70;93.00
9365;DHT22;4722;49.340;9.800;2023-06-22T11:56:44;33.70;86.30
9365;DHT22;4722;49.340;9.800;2023-06-22T12:01:36;34.10;92.80
9365;DHT22;4722;49.340;9.800;2023-06-22T12:04:02;34.40;91.70
9365;DHT22;4722;49.340;9.800;2023-06-22T12:06:37;34.10;91.00
9365;DHT22;4722;49.340;9.800;2023-06-22T12:09:03;33.90;92.60
9365;DHT22;4722;49.340;9.800;2023-06-22T12:13:56;34.10;91.90
9365;DHT22;4722;49.340;9.800;2023-06-22T12:16:21;34.20;92.00
9365;DHT22;4722;49.340;9.800;2023-06-22T12:18:47;34.50;92.30
9365;DHT22;4722;49.340;9.800;2023-06-22T12:21:13;34.30;91.50
9365;DHT22;4722;49.340;9.800;2023-06-22T12:23:39;34.40;84.30
9365;DHT22;4722;49.340;9.800;2023-06-22T12:28:30;34.30;91.80
9365;DHT22;4722;49.340;9.800;2023-06-22T12:30:56;34.20;92.20
9365;DHT22;4722;49.340;9.800;2023-06-22T12:33:21;34.30;92.20
9365;DHT22;4722;49.340;9.800;2023-06-22T12:35:47;34.50;92.60
9365;DHT22;4722;49.340;9.800;2023-06-22T12:38:14;34.50;92.50
9365;DHT22;4722;49.340;9.800;2023-06-22T12:43:05;34.60;92.40
9365;DHT22;4722;49.340;9.800;2023-06-22T12:45:33;34.80;92.70
9365;DHT22;4722;49.340;9.800;2023-06-22T12:47:58;34.70;93.10
9365;DHT22;4722;49.340;9.800;2023-06-22T12:50:25;34.50;93.30
9365;DHT22;4722;49.340;9.800;2023-06-22T12:52:50;34.20;93.30
9365;DHT22;4722;49.340;9.800;2023-06-22T12:55:16;34.50;93.80
9365;DHT22;4722;49.340;9.800;2023-06-22T12:57:41;34.00;94.20
9365;DHT22;4722;49.340;9.800;2023-06-22T13:00:07;33.50;80.50
9365;DHT22;4722;49.340;9.800;2023-06-22T13:02:35;33.50;93.70
9365;DHT22;4722;49.340;9.800;2023-06-22T13:05:01;33.80;94.00
9365;DHT22;4722;49.340;9.800;2023-06-22T13:09:53;34.10;93.10
9365;DHT22;4722;49.340;9.800;2023-06-22T13:12:20;34.40;93.10
9365;DHT22;4722;49.340;9.800;2023-06-22T13:17:12;34.30;92.90
9365;DHT22;4722;49.340;9.800;2023-06-22T13:19:39;34.40;92.90
9365;DHT22;4722;49.340;9.800;2023-06-22T13:22:05;33.90;93.50
9365;DHT22;4722;49.340;9.800;2023-06-22T13:24:30;33.90;93.50
9365;DHT22;4722;49.340;9.800;2023-06-22T13:26:56;33.90;94.20
9365;DHT22;4722;49.340;9.800;2023-06-22T13:29:21;34.40;80.30
9365;DHT22;4722;49.340;9.800;2023-06-22T13:31:47;34.20;92.60
9365;DHT22;4722;49.340;9.800;2023-06-22T13:34:13;34.00;91.70
9365;DHT22;4722;49.340;9.800;2023-06-22T13:36:38;34.10;88.70
9365;DHT22;4722;49.340;9.800;2023-06-22T13:39:04;33.70;87.90
9365;DHT22;4722;49.340;9.800;2023-06-22T13:41:29;34.00;91.60
9365;DHT22;4722;49.340;9.800;2023-06-22T13:43:55;34.00;92.70
9365;DHT22;4722;49.340;9.800;2023-06-22T13:46:20;34.00;77.50
9365;DHT22;4722;49.340;9.800;2023-06-22T13:48:46;33.40;93.00
9365;DHT22;4722;49.340;9.800;2023-06-22T13:51:11;33.90;93.00
9365;DHT22;4722;49.340;9.800;2023-06-22T13:53:37;33.90;93.00
9365;DHT22;4722;49.340;9.800;2023-06-22T13:56:03;33.60;92.80
9365;DHT22;4722;49.340;9.800;2023-06-22T13:58:29;34.10;93.30
9365;DHT22;4722;49.340;9.800;2023-06-22T14:00:54;33.50;94.00
9365;DHT22;4722;49.340;9.800;2023-06-22T14:03:20;33.80;93.60
9365;DHT22;4722;49.340;9.800;2023-06-22T14:08:12;33.90;92.50
9365;DHT22;4722;49.340;9.800;2023-06-22T14:10:37;33.30;91.30
9365;DHT22;4722;49.340;9.800;2023-06-22T14:13:03;33.30;89.00
9365;DHT22;4722;49.340;9.800;2023-06-22T14:15:31;33.50;90.70
9365;DHT22;4722;49.340;9.800;2023-06-22T14:17:57;33.60;89.60
9365;DHT22;4722;49.340;9.800;2023-06-22T14:20:22;33.10;90.30
9365;DHT22;4722;49.340;9.800;2023-06-22T14:22:48;33.70;90.70
9365;DHT22;4722;49.340;9.800;2023-06-22T14:25:13;33.20;88.80
9365;DHT22;4722;49.340;9.800;2023-06-22T14:27:39;33.40;90.00
9365;DHT22;4722;49.340;9.800;2023-06-22T14:32:31;33.90;72.60
9365;DHT22;4722;49.340;9.800;2023-06-22T14:34:56;33.80;62.40
9365;DHT22;4722;49.340;9.800;2023-06-22T14:37:22;34.40;86.70
9365;DHT22;4722;49.340;9.800;2023-06-22T14:39:48;34.20;87.50
9365;DHT22;4722;49.340;9.800;2023-06-22T14:44:39;34.60;85.20
9365;DHT22;4722;49.340;9.800;2023-06-22T14:47:05;31.80;62.90
9365;DHT22;4722;49.340;9.800;2023-06-22T14:49:31;34.70;82.80
9365;DHT22;4722;49.340;9.800;2023-06-22T14:51:56;34.60;61.60
9365;DHT22;4722;49.340;9.800;2023-06-22T14:54:22;34.20;84.90
9365;DHT22;4722;49.340;9.800;2023-06-22T14:56:48;34.60;66.20
9365;DHT22;4722;49.340;9.800;2023-06-22T14:59:13;33.90;65.80
9365;DHT22;4722;49.340;9.800;2023-06-22T15:01:39;32.80;86.30
9365;DHT22;4722;49.340;9.800;2023-06-22T15:04:04;32.60;85.70
9365;DHT22;4722;49.340;9.800;2023-06-22T15:06:30;32.80;87.80
9365;DHT22;4722;49.340;9.800;2023-06-22T15:11:21;33.50;87.30
9365;DHT22;4722;49.340;9.800;2023-06-22T15:13:47;33.20;75.30
9365;DHT22;4722;49.340;9.800;2023-06-22T15:16:13;32.80;88.80
9365;DHT22;4722;49.340;9.800;2023-06-22T15:18:38;32.40;89.80
9365;DHT22;4722;49.340;9.800;2023-06-22T15:30:51;32.70;91.30
9365;DHT22;4722;49.340;9.800;2023-06-22T15:33:17;32.70;73.50
9365;DHT22;4722;49.340;9.800;2023-06-22T15:38:09;32.70;71.20
9365;DHT22;4722;49.340;9.800;2023-06-22T15:40:35;32.50;90.40
9365;DHT22;4722;49.340;9.800;2023-06-22T15:43:00;31.90;90.10
9365;DHT22;4722;49.340;9.800;2023-06-22T15:45:26;32.40;69.70
9365;DHT22;4722;49.340;9.800;2023-06-22T15:47:52;32.40;71.40
9365;DHT22;4722;49.340;9.800;2023-06-22T15:52:43;32.70;90.70
9365;DHT22;4722;49.340;9.800;2023-06-22T15:55:17;32.50;91.10
9365;DHT22;4722;49.340;9.800;2023-06-22T15:57:43;32.10;89.90
9365;DHT22;4722;49.340;9.800;2023-06-22T16:00:18;32.30;89.40
9365;DHT22;4722;49.340;9.800;2023-06-22T16:02:44;32.30;69.80
9365;DHT22;4722;49.340;9.800;2023-06-22T16:05:10;32.10;90.00
9365;DHT22;4722;49.340;9.800;2023-06-22T16:07:36;32.30;70.10
9365;DHT22;4722;49.340;9.800;2023-06-22T16:17:24;32.30;90.40
9365;DHT22;4722;49.340;9.800;2023-06-22T16:19:52;32.40;90.90
9365;DHT22;4722;49.340;9.800;2023-06-22T16:22:21;32.10;72.90
9365;DHT22;4722;49.340;9.800;2023-06-22T16:24:46;32.20;73.90
9365;DHT22;4722;49.340;9.800;2023-06-22T16:29:38;32.20;72.60
9365;DHT22;4722;49.340;9.800;2023-06-22T16:32:05;32.20;72.90
9365;DHT22;4722;49.340;9.800;2023-06-22T16:34:31;32.20;91.80
9365;DHT22;4722;49.340;9.800;2023-06-22T16:39:23;32.50;75.20
9365;DHT22;4722;49.340;9.800;2023-06-22T16:41:48;32.40;92.30
9365;DHT22;4722;49.340;9.800;2023-06-22T16:44:15;31.60;93.00
9365;DHT22;4722;49.340;9.800;2023-06-22T16:49:06;31.50;72.90
9365;DHT22;4722;49.340;9.800;2023-06-22T16:51:32;31.70;77.00
9365;DHT22;4722;49.340;9.800;2023-06-22T16:53:58;31.10;93.40
9365;DHT22;4722;49.340;9.800;2023-06-22T16:56:28;31.70;75.70
9365;DHT22;4722;49.340;9.800;2023-06-22T16:58:55;31.00;94.00
9365;DHT22;4722;49.340;9.800;2023-06-22T17:01:22;30.90;93.80
9365;DHT22;4722;49.340;9.800;2023-06-22T17:04:01;31.50;77.90
9365;DHT22;4722;49.340;9.800;2023-06-22T17:06:27;31.50;77.10
9365;DHT22;4722;49.340;9.800;2023-06-22T17:08:55;31.20;93.90
9365;DHT22;4722;49.340;9.800;2023-06-22T17:11:21;31.40;80.20
9365;DHT22;4722;49.340;9.800;2023-06-22T17:13:46;31.00;94.50
9365;DHT22;4722;49.340;9.800;2023-06-22T17:16:16;31.20;93.70
9365;DHT22;4722;49.340;9.800;2023-06-22T17:18:43;31.30;79.10
9365;DHT22;4722;49.340;9.800;2023-06-22T17:21:11;31.40;79.30
9365;DHT22;4722;49.340;9.800;2023-06-22T17:23:37;31.10;77.60
9365;DHT22;4722;49.340;9.800;2023-06-22T17:26:05;30.70;93.90
9365;DHT22;4722;49.340;9.800;2023-06-22T17:29:09;30.90;76.20
9365;DHT22;4722;49.340;9.800;2023-06-22T17:31:39;30.50;94.90
9365;DHT22;4722;49.340;9.800;2023-06-22T17:34:16;30.50;81.70
9365;DHT22;4722;49.340;9.800;2023-06-22T17:36:48;30.90;96.30
9365;DHT22;4722;49.340;9.800;2023-06-22T17:39:17;30.50;96.50
9365;DHT22;4722;49.340;9.800;2023-06-22T17:41:44;30.20;83.20
9365;DHT22;4722;49.340;9.800;2023-06-22T17:44:12;30.40;97.90
9365;DHT22;4722;49.340;9.800;2023-06-22T17:46:41;30.40;88.40
9365;DHT22;4722;49.340;9.800;2023-06-22T17:49:08;29.90;97.90
9365;DHT22;4722;49.340;9.800;2023-06-22T17:51:35;29.70;97.50
9365;DHT22;4722;49.340;9.800;2023-06-22T17:54:02;29.80;96.70
9365;DHT22;4722;49.340;9.800;2023-06-22T17:58:54;30.00;96.00
9365;DHT22;4722;49.340;9.800;2023-06-22T18:04:08;29.70;94.60
9365;DHT22;4722;49.340;9.800;2023-06-22T18:06:36;29.40;80.30
9365;DHT22;4722;49.340;9.800;2023-06-22T18:09:03;29.40;94.50
9365;DHT22;4722;49.340;9.800;2023-06-22T18:11:46;29.50;94.60
9365;DHT22;4722;49.340;9.800;2023-06-22T18:14:14;29.40;94.10
9365;DHT22;4722;49.340;9.800;2023-06-22T18:19:06;29.20;95.00
9365;DHT22;4722;49.340;9.800;2023-06-22T18:23:59;28.90;95.40
9365;DHT22;4722;49.340;9.800;2023-06-22T18:26:26;29.10;97.00
9365;DHT22;4722;49.340;9.800;2023-06-22T18:28:56;29.20;86.80
9365;DHT22;4722;49.340;9.800;2023-06-22T18:31:23;28.90;98.30
9365;DHT22;4722;49.340;9.800;2023-06-22T18:33:57;28.70;88.40
9365;DHT22;4722;49.340;9.800;2023-06-22T18:36:36;28.80;92.80
9365;DHT22;4722;49.340;9.800;2023-06-22T18:39:04;28.40;92.90
9365;DHT22;4722;49.340;9.800;2023-06-22T18:41:37;28.30;99.90
9365;DHT22;4722;49.340;9.800;2023-06-22T18:44:20;28.50;93.90
9365;DHT22;4722;49.340;9.800;2023-06-22T18:46:50;28.10;99.90
9365;DHT22;4722;49.340;9.800;2023-06-22T18:49:17;28.10;94.70
9365;DHT22;4722;49.340;9.800;2023-06-22T18:51:50;28.30;99.90
9365;DHT22;4722;49.340;9.800;2023-06-22T18:54:21;27.90;99.90
9365;DHT22;4722;49.340;9.800;2023-06-22T18:56:57;27.90;99.90
9365;DHT22;4722;49.340;9.800;2023-06-22T18:59:46;28.10;95.80
9365;DHT22;4722;49.340;9.800;2023-06-22T19:05:41;27.80;95.70
9365;DHT22;4722;49.340;9.800;2023-06-22T19:08:07;27.60;97.60
9365;DHT22;4722;49.340;9.800;2023-06-22T19:15:38;27.10;96.30
9365;DHT22;4722;49.340;9.800;2023-06-22T19:18:21;27.20;99.90
9365;DHT22;4722;49.340;9.800;2023-06-22T19:20:53;27.00;99.90
9365;DHT22;4722;49.340;9.800;2023-06-22T19:25:55;26.80;97.20
9365;DHT22;4722;49.340;9.800;2023-06-22T19:28:28;26.80;98.20
9365;DHT22;4722;49.340;9.800;2023-06-22T19:30:56;26.60;99.90
9365;DHT22;4722;49.340;9.800;2023-06-22T19:33:22;27.00;99.90
9365;DHT22;4722;49.340;9.800;2023-06-22T19:40:46;26.00;99.90
9365;DHT22;4722;49.340;9.800;2023-06-22T19:43:12;26.70;99.90
9365;DHT22;4722;49.340;9.800;2023-06-22T19:45:40;25.30;99.90
9365;DHT22;4722;49.340;9.800;2023-06-22T19:48:14;25.00;99.90
9365;DHT22;4722;49.340;9.800;2023-06-22T19:50:40;25.60;99.90
9365;DHT22;4722;49.340;9.800;2023-06-22T19:53:14;24.90;99.90
9365;DHT22;4722;49.340;9.800;2023-06-22T19:55:44;24.20;99.90
9365;DHT22;4722;49.340;9.800;2023-06-22T19:58:15;24.20;99.90
9365;DHT22;4722;49.340;9.800;2023-06-22T20:03:29;24.50;99.90
9365;DHT22;4722;49.340;9.800;2023-06-22T20:08:21;23.90;99.90
9365;DHT22;4722;49.340;9.800;2023-06-22T20:10:47;23.60;99.90
9365;DHT22;4722;49.340;9.800;2023-06-22T20:13:19;23.90;99.90
9365;DHT22;4722;49.340;9.800;2023-06-22T20:15:46;23.80;99.90
9365;DHT22;4722;49.340;9.800;2023-06-22T20:18:13;23.40;99.90
9365;DHT22;4722;49.340;9.800;2023-06-22T20:20:44;23.40;99.90
9365;DHT22;4722;49.340;9.800;2023-06-22T20:25:38;23.20;99.90
9365;DHT22;4722;49.340;9.800;2023-06-22T20:28:09;23.70;99.90
9365;DHT22;4722;49.340;9.800;2023-06-22T20:30:35;23.10;99.90
9365;DHT22;4722;49.340;9.800;2023-06-22T20:40:23;23.60;99.90
9365;DHT22;4722;49.340;9.800;2023-06-22T20:42:59;23.70;99.90
9365;DHT22;4722;49.340;9.800;2023-06-22T20:45:25;23.60;99.90
9365;DHT22;4722;49.340;9.800;2023-06-22T20:47:56;23.20;99.90
9365;DHT22;4722;49.340;9.800;2023-06-22T20:50:25;23.10;99.90
9365;DHT22;4722;49.340;9.800;2023-06-22T20:55:25;22.90;99.90
9365;DHT22;4722;49.340;9.800;2023-06-22T21:00:18;22.80;99.90
9365;DHT22;4722;49.340;9.800;2023-06-22T21:05:10;23.60;99.90
9365;DHT22;4722;49.340;9.800;2023-06-22T21:07:37;22.80;99.90
9365;DHT22;4722;49.340;9.800;2023-06-22T21:17:22;22.70;99.90
9365;DHT22;4722;49.340;9.800;2023-06-22T21:58:46;22.20;99.90
9365;DHT22;4722;49.340;9.800;2023-06-22T22:27:58;20.70;99.90
9365;DHT22;4722;49.340;9.800;2023-06-22T22:40:08;20.90;99.90
9365;DHT22;4722;49.340;9.800;2023-06-22T22:42:36;21.00;99.90
9365;DHT22;4722;49.340;9.800;2023-06-22T23:11:51;21.30;99.90
9365;DHT22;4722;49.340;9.800;2023-06-22T23:48:28;20.20;99.90
